sensor_id;sensor_type;location;lat;lon;timestamp;P1;durP1;ratioP1;P2;durP2;ratioP2
32198;SDS011;19221;42.656;21.156;2023-04-24T00:01:14;20.00;;;11.35;;
32198;SDS011;19221;42.656;21.156;2023-04-24T00:03:40;25.20;;;12.10;;
32198;SDS011;19221;42.656;21.156;2023-04-24T00:06:06;23.15;;;11.65;;
32198;SDS011;19221;42.656;21.156;2023-04-24T00:08:34;20.77;;;11.82;;
32198;SDS011;19221;42.656;21.156;2023-04-24T00:10:59;19.98;;;11.50;;
32198;SDS011;19221;42.656;21.156;2023-04-24T00:13:25;17.40;;;10.98;;
32198;SDS011;19221;42.656;21.156;2023-04-24T00:15:51;15.05;;;9.93;;
32198;SDS011;19221;42.656;21.156;2023-04-24T00:18:17;18.83;;;10.93;;
32198;SDS011;19221;42.656;21.156;2023-04-24T00:20:42;14.93;;;10.25;;
32198;SDS011;19221;42.656;21.156;2023-04-24T00:23:09;16.20;;;10.07;;
32198;SDS011;19221;42.656;21.156;2023-04-24T00:25:34;17.55;;;9.68;;
32198;SDS011;19221;42.656;21.156;2023-04-24T00:28:00;13.15;;;9.30;;
32198;SDS011;19221;42.656;21.156;2023-04-24T00:30:26;20.55;;;11.50;;
32198;SDS011;19221;42.656;21.156;2023-04-24T00:32:51;18.73;;;10.35;;
32198;SDS011;19221;42.656;21.156;2023-04-24T00:35:17;14.55;;;9.52;;
32198;SDS011;19221;42.656;21.156;2023-04-24T00:37:45;16.27;;;9.93;;
32198;SDS011;19221;42.656;21.156;2023-04-24T00:40:11;14.05;;;9.68;;
32198;SDS011;19221;42.656;21.156;2023-04-24T00:42:36;16.85;;;9.70;;
32198;SDS011;19221;42.656;21.156;2023-04-24T00:45:02;13.13;;;8.95;;
32198;SDS011;19221;42.656;21.156;2023-04-24T00:47:28;16.20;;;9.50;;
32198;SDS011;19221;42.656;21.156;2023-04-24T00:49:55;16.25;;;9.57;;
32198;SDS011;19221;42.656;21.156;2023-04-24T00:52:21;16.95;;;9.98;;
32198;SDS011;19221;42.656;21.156;2023-04-24T00:54:49;14.82;;;10.05;;
32198;SDS011;19221;42.656;21.156;2023-04-24T00:57:15;15.23;;;10.13;;
32198;SDS011;19221;42.656;21.156;2023-04-24T00:59:41;18.42;;;10.68;;
32198;SDS011;19221;42.656;21.156;2023-04-24T01:02:07;15.80;;;10.00;;
32198;SDS011;19221;42.656;21.156;2023-04-24T01:04:34;16.98;;;9.75;;
32198;SDS011;19221;42.656;21.156;2023-04-24T01:07:00;16.63;;;10.90;;
32198;SDS011;19221;42.656;21.156;2023-04-24T01:09:26;14.93;;;9.90;;
32198;SDS011;19221;42.656;21.156;2023-04-24T01:11:53;17.13;;;10.93;;
32198;SDS011;19221;42.656;21.156;2023-04-24T01:14:19;15.93;;;10.27;;
32198;SDS011;19221;42.656;21.156;2023-04-24T01:16:45;17.17;;;10.82;;
32198;SDS011;19221;42.656;21.156;2023-04-24T01:19:11;18.00;;;10.05;;
32198;SDS011;19221;42.656;21.156;2023-04-24T01:21:37;15.95;;;10.00;;
32198;SDS011;19221;42.656;21.156;2023-04-24T01:24:04;19.98;;;10.10;;
32198;SDS011;19221;42.656;21.156;2023-04-24T01:26:30;19.95;;;10.35;;
32198;SDS011;19221;42.656;21.156;2023-04-24T01:28:56;17.60;;;10.65;;
32198;SDS011;19221;42.656;21.156;2023-04-24T01:31:21;16.67;;;11.15;;
32198;SDS011;19221;42.656;21.156;2023-04-24T01:33:47;19.42;;;12.23;;
32198;SDS011;19221;42.656;21.156;2023-04-24T01:36:13;19.50;;;12.32;;
32198;SDS011;19221;42.656;21.156;2023-04-24T01:38:38;18.67;;;12.70;;
32198;SDS011;19221;42.656;21.156;2023-04-24T01:41:04;21.20;;;12.60;;
32198;SDS011;19221;42.656;21.156;2023-04-24T01:43:30;20.55;;;12.80;;
32198;SDS011;19221;42.656;21.156;2023-04-24T01:45:55;21.17;;;12.70;;
32198;SDS011;19221;42.656;21.156;2023-04-24T01:48:21;22.45;;;12.15;;
32198;SDS011;19221;42.656;21.156;2023-04-24T01:50:47;18.65;;;10.77;;
32198;SDS011;19221;42.656;21.156;2023-04-24T01:53:13;22.40;;;12.15;;
32198;SDS011;19221;42.656;21.156;2023-04-24T01:55:38;22.85;;;12.85;;
32198;SDS011;19221;42.656;21.156;2023-04-24T01:58:04;19.02;;;12.48;;
32198;SDS011;19221;42.656;21.156;2023-04-24T02:00:30;19.52;;;11.90;;
32198;SDS011;19221;42.656;21.156;2023-04-24T02:02:55;13.35;;;9.82;;
32198;SDS011;19221;42.656;21.156;2023-04-24T02:05:21;19.40;;;10.77;;
32198;SDS011;19221;42.656;21.156;2023-04-24T02:07:47;15.82;;;9.40;;
32198;SDS011;19221;42.656;21.156;2023-04-24T02:10:12;14.05;;;8.05;;
32198;SDS011;19221;42.656;21.156;2023-04-24T02:12:38;11.02;;;8.45;;
32198;SDS011;19221;42.656;21.156;2023-04-24T02:15:04;12.85;;;8.35;;
32198;SDS011;19221;42.656;21.156;2023-04-24T02:17:30;11.45;;;8.25;;
32198;SDS011;19221;42.656;21.156;2023-04-24T02:19:56;9.98;;;7.28;;
32198;SDS011;19221;42.656;21.156;2023-04-24T02:22:21;9.77;;;6.35;;
32198;SDS011;19221;42.656;21.156;2023-04-24T02:24:47;13.50;;;7.28;;
32198;SDS011;19221;42.656;21.156;2023-04-24T02:27:13;14.25;;;7.93;;
32198;SDS011;19221;42.656;21.156;2023-04-24T02:29:38;10.48;;;7.03;;
32198;SDS011;19221;42.656;21.156;2023-04-24T02:32:04;10.20;;;7.15;;
32198;SDS011;19221;42.656;21.156;2023-04-24T02:34:29;14.00;;;7.50;;
32198;SDS011;19221;42.656;21.156;2023-04-24T02:36:55;8.80;;;6.68;;
32198;SDS011;19221;42.656;21.156;2023-04-24T02:39:21;9.63;;;6.75;;
32198;SDS011;19221;42.656;21.156;2023-04-24T02:41:46;14.07;;;7.13;;
32198;SDS011;19221;42.656;21.156;2023-04-24T02:44:12;11.95;;;6.93;;
32198;SDS011;19221;42.656;21.156;2023-04-24T02:46:38;9.50;;;6.53;;
32198;SDS011;19221;42.656;21.156;2023-04-24T02:49:03;9.27;;;7.20;;
32198;SDS011;19221;42.656;21.156;2023-04-24T02:51:29;10.75;;;7.13;;
32198;SDS011;19221;42.656;21.156;2023-04-24T02:53:55;12.27;;;6.95;;
32198;SDS011;19221;42.656;21.156;2023-04-24T02:56:20;15.27;;;7.82;;
32198;SDS011;19221;42.656;21.156;2023-04-24T02:58:46;14.57;;;9.65;;
32198;SDS011;19221;42.656;21.156;2023-04-24T03:01:12;17.08;;;9.98;;
32198;SDS011;19221;42.656;21.156;2023-04-24T03:03:38;14.45;;;9.60;;
32198;SDS011;19221;42.656;21.156;2023-04-24T03:06:03;16.75;;;9.02;;
32198;SDS011;19221;42.656;21.156;2023-04-24T03:08:31;12.70;;;8.80;;
32198;SDS011;19221;42.656;21.156;2023-04-24T03:10:57;12.15;;;8.80;;
32198;SDS011;19221;42.656;21.156;2023-04-24T03:13:23;12.02;;;8.90;;
32198;SDS011;19221;42.656;21.156;2023-04-24T03:15:48;13.30;;;9.02;;
32198;SDS011;19221;42.656;21.156;2023-04-24T03:18:14;13.38;;;9.43;;
32198;SDS011;19221;42.656;21.156;2023-04-24T03:20:40;14.25;;;9.35;;
32198;SDS011;19221;42.656;21.156;2023-04-24T03:23:05;10.48;;;7.82;;
32198;SDS011;19221;42.656;21.156;2023-04-24T03:25:31;14.77;;;8.50;;
32198;SDS011;19221;42.656;21.156;2023-04-24T03:27:56;13.25;;;8.57;;
32198;SDS011;19221;42.656;21.156;2023-04-24T03:30:22;14.88;;;9.15;;
32198;SDS011;19221;42.656;21.156;2023-04-24T03:32:48;13.70;;;8.70;;
32198;SDS011;19221;42.656;21.156;2023-04-24T03:35:13;12.18;;;9.07;;
32198;SDS011;19221;42.656;21.156;2023-04-24T03:37:39;15.65;;;9.45;;
32198;SDS011;19221;42.656;21.156;2023-04-24T03:40:05;13.38;;;9.90;;
32198;SDS011;19221;42.656;21.156;2023-04-24T03:42:32;11.30;;;8.90;;
32198;SDS011;19221;42.656;21.156;2023-04-24T03:44:58;15.55;;;9.43;;
32198;SDS011;19221;42.656;21.156;2023-04-24T03:47:23;16.02;;;9.32;;
32198;SDS011;19221;42.656;21.156;2023-04-24T03:49:49;16.67;;;9.75;;
32198;SDS011;19221;42.656;21.156;2023-04-24T03:52:15;14.45;;;9.63;;
32198;SDS011;19221;42.656;21.156;2023-04-24T03:54:41;29.50;;;21.23;;
32198;SDS011;19221;42.656;21.156;2023-04-24T03:57:06;19.80;;;15.32;;
32198;SDS011;19221;42.656;21.156;2023-04-24T03:59:32;14.55;;;9.90;;
32198;SDS011;19221;42.656;21.156;2023-04-24T04:01:58;21.88;;;10.88;;
32198;SDS011;19221;42.656;21.156;2023-04-24T04:04:23;14.68;;;9.35;;
32198;SDS011;19221;42.656;21.156;2023-04-24T04:06:49;14.02;;;9.68;;
32198;SDS011;19221;42.656;21.156;2023-04-24T04:09:15;18.95;;;10.48;;
32198;SDS011;19221;42.656;21.156;2023-04-24T04:11:40;13.70;;;9.80;;
32198;SDS011;19221;42.656;21.156;2023-04-24T04:14:06;17.80;;;9.48;;
32198;SDS011;19221;42.656;21.156;2023-04-24T04:16:32;14.85;;;9.40;;
32198;SDS011;19221;42.656;21.156;2023-04-24T04:18:57;16.88;;;9.73;;
32198;SDS011;19221;42.656;21.156;2023-04-24T04:21:23;19.23;;;9.98;;
32198;SDS011;19221;42.656;21.156;2023-04-24T04:23:49;16.75;;;9.57;;
32198;SDS011;19221;42.656;21.156;2023-04-24T04:26:15;25.55;;;10.13;;
32198;SDS011;19221;42.656;21.156;2023-04-24T04:28:40;15.25;;;11.00;;
32198;SDS011;19221;42.656;21.156;2023-04-24T04:31:06;16.20;;;11.23;;
32198;SDS011;19221;42.656;21.156;2023-04-24T04:33:33;15.63;;;11.60;;
32198;SDS011;19221;42.656;21.156;2023-04-24T04:35:59;15.55;;;10.60;;
32198;SDS011;19221;42.656;21.156;2023-04-24T04:38:25;18.05;;;10.00;;
32198;SDS011;19221;42.656;21.156;2023-04-24T04:40:52;17.50;;;8.73;;
32198;SDS011;19221;42.656;21.156;2023-04-24T04:43:18;14.88;;;8.65;;
32198;SDS011;19221;42.656;21.156;2023-04-24T04:45:44;14.48;;;8.20;;
32198;SDS011;19221;42.656;21.156;2023-04-24T04:48:10;12.48;;;8.07;;
32198;SDS011;19221;42.656;21.156;2023-04-24T04:50:38;15.93;;;8.20;;
32198;SDS011;19221;42.656;21.156;2023-04-24T04:53:04;16.20;;;8.02;;
32198;SDS011;19221;42.656;21.156;2023-04-24T04:55:30;13.80;;;9.18;;
32198;SDS011;19221;42.656;21.156;2023-04-24T04:57:56;18.20;;;8.77;;
32198;SDS011;19221;42.656;21.156;2023-04-24T05:00:22;21.20;;;9.35;;
32198;SDS011;19221;42.656;21.156;2023-04-24T05:02:50;19.58;;;9.73;;
32198;SDS011;19221;42.656;21.156;2023-04-24T05:05:17;15.25;;;9.27;;
32198;SDS011;19221;42.656;21.156;2023-04-24T05:07:44;14.02;;;9.13;;
32198;SDS011;19221;42.656;21.156;2023-04-24T05:10:09;16.48;;;8.80;;
32198;SDS011;19221;42.656;21.156;2023-04-24T05:12:36;16.77;;;9.73;;
32198;SDS011;19221;42.656;21.156;2023-04-24T05:15:01;21.95;;;10.27;;
32198;SDS011;19221;42.656;21.156;2023-04-24T05:17:28;15.60;;;9.40;;
32198;SDS011;19221;42.656;21.156;2023-04-24T05:19:53;22.50;;;10.05;;
32198;SDS011;19221;42.656;21.156;2023-04-24T05:22:19;11.90;;;7.38;;
32198;SDS011;19221;42.656;21.156;2023-04-24T05:24:46;15.07;;;8.60;;
32198;SDS011;19221;42.656;21.156;2023-04-24T05:27:12;17.85;;;8.63;;
32198;SDS011;19221;42.656;21.156;2023-04-24T05:29:38;18.85;;;8.77;;
32198;SDS011;19221;42.656;21.156;2023-04-24T05:32:04;16.35;;;7.57;;
32198;SDS011;19221;42.656;21.156;2023-04-24T05:34:29;20.77;;;7.45;;
32198;SDS011;19221;42.656;21.156;2023-04-24T05:36:56;7.97;;;6.25;;
32198;SDS011;19221;42.656;21.156;2023-04-24T05:39:22;11.73;;;6.53;;
32198;SDS011;19221;42.656;21.156;2023-04-24T05:41:50;12.73;;;7.35;;
32198;SDS011;19221;42.656;21.156;2023-04-24T05:44:16;20.23;;;7.13;;
32198;SDS011;19221;42.656;21.156;2023-04-24T05:46:42;12.77;;;6.47;;
32198;SDS011;19221;42.656;21.156;2023-04-24T05:49:08;13.80;;;6.90;;
32198;SDS011;19221;42.656;21.156;2023-04-24T05:51:33;13.02;;;6.60;;
32198;SDS011;19221;42.656;21.156;2023-04-24T05:53:59;8.10;;;6.38;;
32198;SDS011;19221;42.656;21.156;2023-04-24T05:56:25;10.52;;;7.03;;
32198;SDS011;19221;42.656;21.156;2023-04-24T05:58:51;14.57;;;6.80;;
32198;SDS011;19221;42.656;21.156;2023-04-24T06:01:16;14.27;;;7.72;;
32198;SDS011;19221;42.656;21.156;2023-04-24T06:03:42;13.00;;;7.18;;
32198;SDS011;19221;42.656;21.156;2023-04-24T06:06:08;10.60;;;6.30;;
32198;SDS011;19221;42.656;21.156;2023-04-24T06:08:34;16.58;;;7.10;;
32198;SDS011;19221;42.656;21.156;2023-04-24T06:11:01;9.23;;;7.03;;
32198;SDS011;19221;42.656;21.156;2023-04-24T06:13:27;14.18;;;6.43;;
32198;SDS011;19221;42.656;21.156;2023-04-24T06:15:52;14.32;;;6.65;;
32198;SDS011;19221;42.656;21.156;2023-04-24T06:18:18;10.25;;;6.55;;
32198;SDS011;19221;42.656;21.156;2023-04-24T06:20:44;9.75;;;6.28;;
32198;SDS011;19221;42.656;21.156;2023-04-24T06:23:10;8.35;;;5.90;;
32198;SDS011;19221;42.656;21.156;2023-04-24T06:25:36;13.20;;;6.68;;
32198;SDS011;19221;42.656;21.156;2023-04-24T06:28:01;13.25;;;6.28;;
32198;SDS011;19221;42.656;21.156;2023-04-24T06:30:27;14.05;;;6.25;;
32198;SDS011;19221;42.656;21.156;2023-04-24T06:32:53;12.15;;;6.63;;
32198;SDS011;19221;42.656;21.156;2023-04-24T06:35:19;16.23;;;7.10;;
32198;SDS011;19221;42.656;21.156;2023-04-24T06:37:45;15.20;;;7.20;;
32198;SDS011;19221;42.656;21.156;2023-04-24T06:40:11;13.50;;;6.63;;
32198;SDS011;19221;42.656;21.156;2023-04-24T06:42:37;11.90;;;6.32;;
32198;SDS011;19221;42.656;21.156;2023-04-24T06:45:03;11.82;;;6.38;;
32198;SDS011;19221;42.656;21.156;2023-04-24T06:47:29;15.20;;;6.63;;
32198;SDS011;19221;42.656;21.156;2023-04-24T06:49:55;10.50;;;6.50;;
32198;SDS011;19221;42.656;21.156;2023-04-24T06:52:21;8.68;;;5.88;;
32198;SDS011;19221;42.656;21.156;2023-04-24T06:54:46;11.52;;;6.75;;
32198;SDS011;19221;42.656;21.156;2023-04-24T06:57:12;11.07;;;6.65;;
32198;SDS011;19221;42.656;21.156;2023-04-24T06:59:38;17.88;;;7.30;;
32198;SDS011;19221;42.656;21.156;2023-04-24T07:02:03;9.13;;;6.60;;
32198;SDS011;19221;42.656;21.156;2023-04-24T07:04:29;12.75;;;6.35;;
32198;SDS011;19221;42.656;21.156;2023-04-24T07:06:55;8.77;;;6.35;;
32198;SDS011;19221;42.656;21.156;2023-04-24T07:09:21;6.80;;;6.00;;
32198;SDS011;19221;42.656;21.156;2023-04-24T07:11:47;10.27;;;6.60;;
32198;SDS011;19221;42.656;21.156;2023-04-24T07:14:13;8.40;;;6.68;;
32198;SDS011;19221;42.656;21.156;2023-04-24T07:16:39;13.23;;;6.22;;
32198;SDS011;19221;42.656;21.156;2023-04-24T07:19:05;10.77;;;6.53;;
32198;SDS011;19221;42.656;21.156;2023-04-24T07:21:30;13.15;;;7.28;;
32198;SDS011;19221;42.656;21.156;2023-04-24T07:23:57;10.40;;;6.32;;
32198;SDS011;19221;42.656;21.156;2023-04-24T07:26:23;13.05;;;7.35;;
32198;SDS011;19221;42.656;21.156;2023-04-24T07:28:49;24.33;;;7.95;;
32198;SDS011;19221;42.656;21.156;2023-04-24T07:31:14;17.40;;;7.25;;
32198;SDS011;19221;42.656;21.156;2023-04-24T07:33:40;14.82;;;7.20;;
32198;SDS011;19221;42.656;21.156;2023-04-24T07:36:06;13.38;;;7.30;;
32198;SDS011;19221;42.656;21.156;2023-04-24T07:38:31;13.88;;;7.22;;
32198;SDS011;19221;42.656;21.156;2023-04-24T07:40:57;13.32;;;7.70;;
32198;SDS011;19221;42.656;21.156;2023-04-24T07:43:23;15.35;;;8.55;;
32198;SDS011;19221;42.656;21.156;2023-04-24T07:45:51;10.95;;;6.60;;
32198;SDS011;19221;42.656;21.156;2023-04-24T07:48:17;21.58;;;7.97;;
32198;SDS011;19221;42.656;21.156;2023-04-24T07:50:46;12.32;;;7.78;;
32198;SDS011;19221;42.656;21.156;2023-04-24T07:53:11;15.13;;;8.23;;
32198;SDS011;19221;42.656;21.156;2023-04-24T07:55:37;10.57;;;7.03;;
32198;SDS011;19221;42.656;21.156;2023-04-24T07:58:03;12.20;;;6.88;;
32198;SDS011;19221;42.656;21.156;2023-04-24T08:00:29;16.02;;;7.85;;
32198;SDS011;19221;42.656;21.156;2023-04-24T08:02:54;12.10;;;7.78;;
32198;SDS011;19221;42.656;21.156;2023-04-24T08:05:20;12.30;;;7.30;;
32198;SDS011;19221;42.656;21.156;2023-04-24T08:07:46;12.50;;;6.68;;
32198;SDS011;19221;42.656;21.156;2023-04-24T08:10:16;13.00;;;7.53;;
32198;SDS011;19221;42.656;21.156;2023-04-24T08:12:42;8.90;;;6.43;;
32198;SDS011;19221;42.656;21.156;2023-04-24T08:15:08;15.25;;;7.38;;
32198;SDS011;19221;42.656;21.156;2023-04-24T08:17:34;8.27;;;6.40;;
32198;SDS011;19221;42.656;21.156;2023-04-24T08:20:00;16.83;;;9.02;;
32198;SDS011;19221;42.656;21.156;2023-04-24T08:22:29;16.20;;;7.68;;
32198;SDS011;19221;42.656;21.156;2023-04-24T08:24:55;16.20;;;7.68;;
32198;SDS011;19221;42.656;21.156;2023-04-24T08:27:26;12.75;;;8.55;;
32198;SDS011;19221;42.656;21.156;2023-04-24T08:29:52;12.77;;;7.82;;
32198;SDS011;19221;42.656;21.156;2023-04-24T08:32:18;11.50;;;7.28;;
32198;SDS011;19221;42.656;21.156;2023-04-24T08:34:44;12.27;;;8.57;;
32198;SDS011;19221;42.656;21.156;2023-04-24T08:37:09;16.33;;;9.10;;
32198;SDS011;19221;42.656;21.156;2023-04-24T08:39:36;10.98;;;7.80;;
32198;SDS011;19221;42.656;21.156;2023-04-24T08:42:02;12.18;;;7.75;;
32198;SDS011;19221;42.656;21.156;2023-04-24T08:44:32;12.00;;;8.27;;
32198;SDS011;19221;42.656;21.156;2023-04-24T08:46:57;14.80;;;7.93;;
32198;SDS011;19221;42.656;21.156;2023-04-24T08:49:23;16.80;;;8.35;;
32198;SDS011;19221;42.656;21.156;2023-04-24T08:51:49;12.77;;;8.85;;
32198;SDS011;19221;42.656;21.156;2023-04-24T08:54:15;12.50;;;7.00;;
32198;SDS011;19221;42.656;21.156;2023-04-24T08:56:43;16.05;;;8.18;;
32198;SDS011;19221;42.656;21.156;2023-04-24T08:59:10;17.92;;;9.38;;
32198;SDS011;19221;42.656;21.156;2023-04-24T09:01:36;18.67;;;7.47;;
32198;SDS011;19221;42.656;21.156;2023-04-24T09:04:02;13.20;;;8.57;;
32198;SDS011;19221;42.656;21.156;2023-04-24T09:06:29;15.77;;;10.05;;
32198;SDS011;19221;42.656;21.156;2023-04-24T09:08:56;16.30;;;9.02;;
32198;SDS011;19221;42.656;21.156;2023-04-24T09:11:22;11.63;;;7.82;;
32198;SDS011;19221;42.656;21.156;2023-04-24T09:13:49;11.32;;;7.15;;
32198;SDS011;19221;42.656;21.156;2023-04-24T09:16:15;11.82;;;8.60;;
32198;SDS011;19221;42.656;21.156;2023-04-24T09:18:41;11.75;;;7.03;;
32198;SDS011;19221;42.656;21.156;2023-04-24T09:21:07;11.70;;;7.15;;
32198;SDS011;19221;42.656;21.156;2023-04-24T09:23:33;12.18;;;7.35;;
32198;SDS011;19221;42.656;21.156;2023-04-24T09:25:59;11.15;;;7.22;;
32198;SDS011;19221;42.656;21.156;2023-04-24T09:31:08;8.43;;;6.70;;
32198;SDS011;19221;42.656;21.156;2023-04-24T09:33:34;10.75;;;7.72;;
32198;SDS011;19221;42.656;21.156;2023-04-24T09:36:00;15.13;;;8.02;;
32198;SDS011;19221;42.656;21.156;2023-04-24T09:38:35;12.82;;;7.22;;
32198;SDS011;19221;42.656;21.156;2023-04-24T09:41:13;14.45;;;7.00;;
32198;SDS011;19221;42.656;21.156;2023-04-24T09:43:39;13.85;;;7.57;;
32198;SDS011;19221;42.656;21.156;2023-04-24T09:46:05;9.65;;;6.40;;
32198;SDS011;19221;42.656;21.156;2023-04-24T09:50:57;7.55;;;5.68;;
32198;SDS011;19221;42.656;21.156;2023-04-24T09:53:24;13.65;;;8.73;;
32198;SDS011;19221;42.656;21.156;2023-04-24T09:55:50;14.38;;;7.38;;
32198;SDS011;19221;42.656;21.156;2023-04-24T09:58:16;10.65;;;6.47;;
32198;SDS011;19221;42.656;21.156;2023-04-24T10:00:41;11.95;;;7.75;;
32198;SDS011;19221;42.656;21.156;2023-04-24T10:03:07;9.45;;;6.40;;
32198;SDS011;19221;42.656;21.156;2023-04-24T10:05:34;10.38;;;7.32;;
32198;SDS011;19221;42.656;21.156;2023-04-24T10:08:03;8.80;;;6.35;;
32198;SDS011;19221;42.656;21.156;2023-04-24T10:10:33;13.88;;;8.13;;
32198;SDS011;19221;42.656;21.156;2023-04-24T10:12:59;21.00;;;8.68;;
32198;SDS011;19221;42.656;21.156;2023-04-24T10:15:25;8.68;;;6.00;;
32198;SDS011;19221;42.656;21.156;2023-04-24T10:17:51;9.65;;;5.82;;
32198;SDS011;19221;42.656;21.156;2023-04-24T10:20:18;9.38;;;6.10;;
32198;SDS011;19221;42.656;21.156;2023-04-24T10:22:45;14.13;;;8.00;;
32198;SDS011;19221;42.656;21.156;2023-04-24T10:25:13;15.75;;;7.20;;
32198;SDS011;19221;42.656;21.156;2023-04-24T10:27:40;16.10;;;9.13;;
32198;SDS011;19221;42.656;21.156;2023-04-24T10:30:06;16.58;;;8.15;;
32198;SDS011;19221;42.656;21.156;2023-04-24T10:32:31;32.72;;;15.32;;
32198;SDS011;19221;42.656;21.156;2023-04-24T10:34:57;37.92;;;17.08;;
32198;SDS011;19221;42.656;21.156;2023-04-24T10:37:23;16.52;;;8.82;;
32198;SDS011;19221;42.656;21.156;2023-04-24T10:39:49;14.63;;;8.25;;
32198;SDS011;19221;42.656;21.156;2023-04-24T10:42:16;15.80;;;10.07;;
32198;SDS011;19221;42.656;21.156;2023-04-24T10:44:42;15.68;;;9.02;;
32198;SDS011;19221;42.656;21.156;2023-04-24T10:47:14;12.30;;;6.93;;
32198;SDS011;19221;42.656;21.156;2023-04-24T10:49:39;16.00;;;7.70;;
32198;SDS011;19221;42.656;21.156;2023-04-24T10:52:05;15.02;;;8.48;;
32198;SDS011;19221;42.656;21.156;2023-04-24T10:54:35;19.83;;;11.30;;
32198;SDS011;19221;42.656;21.156;2023-04-24T10:59:52;18.33;;;7.70;;
32198;SDS011;19221;42.656;21.156;2023-04-24T11:02:37;12.88;;;5.68;;
32198;SDS011;19221;42.656;21.156;2023-04-24T11:05:03;13.30;;;6.38;;
32198;SDS011;19221;42.656;21.156;2023-04-24T11:07:29;11.68;;;5.43;;
32198;SDS011;19221;42.656;21.156;2023-04-24T11:09:58;16.23;;;6.43;;
32198;SDS011;19221;42.656;21.156;2023-04-24T11:12:26;9.35;;;4.57;;
32198;SDS011;19221;42.656;21.156;2023-04-24T11:17:33;8.20;;;5.18;;
32198;SDS011;19221;42.656;21.156;2023-04-24T11:20:03;12.40;;;5.18;;
32198;SDS011;19221;42.656;21.156;2023-04-24T11:22:30;11.73;;;5.60;;
32198;SDS011;19221;42.656;21.156;2023-04-24T11:24:58;16.55;;;5.88;;
32198;SDS011;19221;42.656;21.156;2023-04-24T11:27:25;14.85;;;5.63;;
32198;SDS011;19221;42.656;21.156;2023-04-24T11:35:02;12.88;;;6.50;;
32198;SDS011;19221;42.656;21.156;2023-04-24T11:37:39;11.77;;;4.82;;
32198;SDS011;19221;42.656;21.156;2023-04-24T11:40:10;24.10;;;6.40;;
32198;SDS011;19221;42.656;21.156;2023-04-24T11:42:46;7.95;;;4.88;;
32198;SDS011;19221;42.656;21.156;2023-04-24T11:45:13;13.63;;;6.15;;
32198;SDS011;19221;42.656;21.156;2023-04-24T11:47:39;13.32;;;6.32;;
32198;SDS011;19221;42.656;21.156;2023-04-24T11:50:06;14.85;;;6.22;;
32198;SDS011;19221;42.656;21.156;2023-04-24T11:52:33;8.35;;;4.57;;
32198;SDS011;19221;42.656;21.156;2023-04-24T11:54:59;15.27;;;5.28;;
32198;SDS011;19221;42.656;21.156;2023-04-24T11:57:25;15.10;;;5.53;;
32198;SDS011;19221;42.656;21.156;2023-04-24T11:59:54;19.67;;;6.72;;
32198;SDS011;19221;42.656;21.156;2023-04-24T12:02:22;18.90;;;6.65;;
32198;SDS011;19221;42.656;21.156;2023-04-24T12:04:48;20.38;;;5.55;;
32198;SDS011;19221;42.656;21.156;2023-04-24T12:07:14;20.48;;;6.35;;
32198;SDS011;19221;42.656;21.156;2023-04-24T12:09:46;11.48;;;5.55;;
32198;SDS011;19221;42.656;21.156;2023-04-24T12:12:13;19.73;;;6.07;;
32198;SDS011;19221;42.656;21.156;2023-04-24T12:14:48;14.95;;;6.60;;
32198;SDS011;19221;42.656;21.156;2023-04-24T12:17:15;20.55;;;6.13;;
32198;SDS011;19221;42.656;21.156;2023-04-24T12:19:45;13.82;;;5.78;;
32198;SDS011;19221;42.656;21.156;2023-04-24T12:22:11;26.50;;;6.50;;
32198;SDS011;19221;42.656;21.156;2023-04-24T12:24:54;23.00;;;7.22;;
32198;SDS011;19221;42.656;21.156;2023-04-24T12:27:20;18.30;;;6.07;;
32198;SDS011;19221;42.656;21.156;2023-04-24T12:29:55;16.25;;;6.72;;
32198;SDS011;19221;42.656;21.156;2023-04-24T12:32:21;17.83;;;7.28;;
32198;SDS011;19221;42.656;21.156;2023-04-24T12:34:47;14.02;;;6.63;;
32198;SDS011;19221;42.656;21.156;2023-04-24T12:37:12;9.48;;;5.72;;
32198;SDS011;19221;42.656;21.156;2023-04-24T12:39:38;14.52;;;6.55;;
32198;SDS011;19221;42.656;21.156;2023-04-24T12:42:04;14.60;;;6.63;;
32198;SDS011;19221;42.656;21.156;2023-04-24T12:44:33;17.95;;;7.57;;
32198;SDS011;19221;42.656;21.156;2023-04-24T12:47:00;24.88;;;10.52;;
32198;SDS011;19221;42.656;21.156;2023-04-24T12:49:26;20.42;;;7.32;;
32198;SDS011;19221;42.656;21.156;2023-04-24T12:51:52;14.98;;;6.78;;
32198;SDS011;19221;42.656;21.156;2023-04-24T12:54:18;15.98;;;5.78;;
32198;SDS011;19221;42.656;21.156;2023-04-24T12:56:43;15.38;;;6.95;;
32198;SDS011;19221;42.656;21.156;2023-04-24T12:59:09;10.95;;;6.57;;
32198;SDS011;19221;42.656;21.156;2023-04-24T13:01:35;13.80;;;6.70;;
32198;SDS011;19221;42.656;21.156;2023-04-24T13:04:01;15.10;;;6.50;;
32198;SDS011;19221;42.656;21.156;2023-04-24T13:06:26;22.15;;;9.18;;
32198;SDS011;19221;42.656;21.156;2023-04-24T13:08:52;12.23;;;5.78;;
32198;SDS011;19221;42.656;21.156;2023-04-24T13:11:20;13.30;;;7.10;;
32198;SDS011;19221;42.656;21.156;2023-04-24T13:13:47;16.30;;;7.65;;
32198;SDS011;19221;42.656;21.156;2023-04-24T13:16:12;10.52;;;6.97;;
32198;SDS011;19221;42.656;21.156;2023-04-24T13:18:38;17.15;;;7.30;;
32198;SDS011;19221;42.656;21.156;2023-04-24T13:21:04;16.35;;;7.72;;
32198;SDS011;19221;42.656;21.156;2023-04-24T13:23:29;12.05;;;7.05;;
32198;SDS011;19221;42.656;21.156;2023-04-24T13:25:55;13.77;;;7.75;;
32198;SDS011;19221;42.656;21.156;2023-04-24T13:28:24;16.70;;;7.55;;
32198;SDS011;19221;42.656;21.156;2023-04-24T13:30:50;14.88;;;6.82;;
32198;SDS011;19221;42.656;21.156;2023-04-24T13:33:15;8.95;;;6.68;;
32198;SDS011;19221;42.656;21.156;2023-04-24T13:35:41;9.65;;;6.68;;
32198;SDS011;19221;42.656;21.156;2023-04-24T13:38:07;13.75;;;6.53;;
32198;SDS011;19221;42.656;21.156;2023-04-24T13:40:32;17.55;;;7.90;;
32198;SDS011;19221;42.656;21.156;2023-04-24T13:42:58;13.65;;;7.05;;
32198;SDS011;19221;42.656;21.156;2023-04-24T13:45:25;15.95;;;7.20;;
32198;SDS011;19221;42.656;21.156;2023-04-24T13:47:51;11.90;;;8.13;;
32198;SDS011;19221;42.656;21.156;2023-04-24T13:50:16;15.68;;;7.18;;
32198;SDS011;19221;42.656;21.156;2023-04-24T13:52:42;19.25;;;8.45;;
32198;SDS011;19221;42.656;21.156;2023-04-24T13:55:08;15.80;;;8.93;;
32198;SDS011;19221;42.656;21.156;2023-04-24T13:57:33;10.02;;;7.72;;
32198;SDS011;19221;42.656;21.156;2023-04-24T13:59:59;13.18;;;7.72;;
32198;SDS011;19221;42.656;21.156;2023-04-24T14:02:27;11.38;;;7.00;;
32198;SDS011;19221;42.656;21.156;2023-04-24T14:04:53;16.33;;;7.38;;
32198;SDS011;19221;42.656;21.156;2023-04-24T14:07:18;12.80;;;8.43;;
32198;SDS011;19221;42.656;21.156;2023-04-24T14:09:44;9.95;;;6.50;;
32198;SDS011;19221;42.656;21.156;2023-04-24T14:12:10;13.75;;;6.43;;
32198;SDS011;19221;42.656;21.156;2023-04-24T14:14:35;15.32;;;7.50;;
32198;SDS011;19221;42.656;21.156;2023-04-24T14:17:01;14.43;;;7.70;;
32198;SDS011;19221;42.656;21.156;2023-04-24T14:19:27;14.05;;;6.85;;
32198;SDS011;19221;42.656;21.156;2023-04-24T14:21:52;11.98;;;6.65;;
32198;SDS011;19221;42.656;21.156;2023-04-24T14:24:19;10.85;;;6.97;;
32198;SDS011;19221;42.656;21.156;2023-04-24T14:26:44;11.90;;;6.65;;
32198;SDS011;19221;42.656;21.156;2023-04-24T14:29:10;11.40;;;6.15;;
32198;SDS011;19221;42.656;21.156;2023-04-24T14:31:36;10.40;;;7.45;;